createdAt,value
2023-03-08T00:00:07.738Z,3.63
2023-03-08T00:01:11.674Z,3.60
2023-03-08T00:02:08.304Z,3.88
2023-03-08T00:03:04.930Z,3.70
2023-03-08T00:04:02.365Z,3.80
2023-03-08T00:04:59.141Z,4.10
2023-03-08T00:05:55.749Z,4.22
2023-03-08T00:06:52.346Z,3.65
2023-03-08T00:07:48.915Z,3.88
2023-03-08T00:08:46.318Z,3.63
2023-03-08T00:09:43.009Z,3.78
2023-03-08T00:10:39.578Z,3.88
2023-03-08T00:11:36.389Z,4.03
2023-03-08T00:12:33.320Z,3.83
2023-03-08T00:13:29.994Z,3.58
2023-03-08T00:14:26.680Z,3.75
2023-03-08T00:15:23.221Z,3.97
2023-03-08T00:16:19.889Z,3.80
2023-03-08T00:17:17.531Z,4.10
2023-03-08T00:18:14.099Z,4.00
2023-03-08T00:19:10.648Z,3.50
2023-03-08T00:20:10.716Z,3.75
2023-03-08T00:21:10.564Z,4.07
2023-03-08T00:22:08.177Z,3.70
2023-03-08T00:23:04.777Z,3.50
2023-03-08T00:24:01.890Z,3.72
2023-03-08T00:24:58.520Z,3.53
2023-03-08T00:25:55.599Z,3.63
2023-03-08T00:26:52.165Z,3.75
2023-03-08T00:27:48.719Z,3.50
2023-03-08T00:28:46.427Z,3.97
2023-03-08T00:29:43.110Z,3.67
2023-03-08T00:30:39.720Z,3.78
2023-03-08T00:31:36.531Z,4.00
2023-03-08T00:32:51.865Z,3.65
2023-03-08T00:36:04.352Z,3.90
2023-03-08T00:37:19.445Z,3.65
2023-03-08T00:39:30.372Z,3.95
2023-03-08T00:40:45.597Z,3.50
2023-03-08T00:42:19.521Z,3.88
2023-03-08T00:45:07.757Z,3.90
2023-03-08T00:46:24.356Z,3.47
2023-03-08T00:47:20.970Z,3.97
2023-03-08T00:48:17.639Z,3.80
2023-03-08T00:49:51.637Z,3.92
2023-03-08T00:50:48.285Z,3.70
2023-03-08T00:51:44.890Z,3.90
2023-03-08T00:52:41.472Z,3.65
2023-03-08T00:53:38.029Z,3.63
2023-03-08T00:54:34.982Z,4.15
2023-03-08T00:55:31.787Z,3.80
2023-03-08T00:56:28.436Z,4.40
2023-03-08T00:57:25.170Z,3.85
2023-03-08T00:58:22.964Z,4.07
2023-03-08T00:59:19.597Z,4.07
2023-03-08T01:00:16.641Z,3.45
2023-03-08T01:01:19.026Z,4.10
2023-03-08T01:02:15.694Z,3.40
2023-03-08T01:03:12.575Z,3.90
2023-03-08T01:04:09.266Z,3.97
2023-03-08T01:05:06.083Z,4.13
2023-03-08T01:06:08.774Z,4.13
2023-03-08T01:07:05.456Z,3.90
2023-03-08T01:08:03.489Z,3.95
2023-03-08T01:09:00.838Z,4.18
2023-03-08T01:09:57.481Z,4.25
2023-03-08T01:10:59.703Z,4.22
2023-03-08T01:11:56.418Z,3.88
2023-03-08T01:12:53.034Z,3.80
2023-03-08T01:13:51.256Z,3.58
2023-03-08T01:14:47.793Z,4.32
2023-03-08T01:15:44.352Z,3.90
2023-03-08T01:16:41.319Z,3.75
2023-03-08T01:17:37.915Z,3.78
2023-03-08T01:18:34.593Z,3.92
2023-03-08T01:19:31.196Z,3.85
2023-03-08T01:20:27.757Z,4.40
2023-03-08T01:21:25.157Z,4.13
2023-03-08T01:22:21.744Z,3.63
2023-03-08T01:23:18.349Z,4.00
2023-03-08T01:24:14.972Z,3.55
2023-03-08T01:25:11.629Z,4.05
2023-03-08T01:26:15.092Z,4.10
2023-03-08T01:27:11.796Z,4.00
2023-03-08T01:28:08.393Z,4.53
2023-03-08T01:29:05.109Z,4.57
2023-03-08T01:30:01.800Z,3.45
2023-03-08T01:31:06.159Z,3.85
2023-03-08T01:32:02.958Z,3.80
2023-03-08T01:32:59.585Z,4.03
2023-03-08T01:33:57.093Z,4.10
2023-03-08T01:34:53.700Z,4.05
2023-03-08T01:35:50.304Z,4.10
2023-03-08T01:36:47.053Z,4.05
2023-03-08T01:37:43.711Z,3.63
2023-03-08T01:38:40.434Z,4.13
2023-03-08T01:39:37.047Z,4.50
2023-03-08T01:40:33.614Z,4.07
2023-03-08T01:41:31.935Z,3.75
2023-03-08T01:42:29.032Z,4.43
2023-03-08T01:43:39.147Z,3.58
2023-03-08T01:44:57.894Z,4.03
2023-03-08T01:46:16.222Z,3.40
2023-03-08T01:47:19.166Z,3.97
2023-03-08T01:48:16.351Z,3.72
2023-03-08T01:49:21.624Z,4.00
2023-03-08T01:50:19.640Z,4.10
2023-03-08T01:51:22.701Z,4.35
2023-03-08T01:52:23.738Z,4.00
2023-03-08T01:53:20.976Z,4.15
2023-03-08T01:54:20.293Z,3.78
2023-03-08T01:55:18.426Z,4.35
2023-03-08T01:56:17.754Z,4.07
2023-03-08T01:57:16.825Z,4.38
2023-03-08T01:58:13.479Z,4.18
2023-03-08T01:59:10.764Z,4.18
2023-03-08T02:00:18.222Z,3.78
2023-03-08T02:01:15.612Z,4.18
2023-03-08T02:02:12.305Z,4.03
2023-03-08T02:03:11.620Z,4.10
2023-03-08T02:04:10.053Z,3.63
2023-03-08T02:05:08.333Z,4.10
2023-03-08T02:06:05.134Z,3.65
2023-03-08T02:07:01.704Z,4.30
2023-03-08T02:07:58.516Z,4.15
2023-03-08T02:08:55.411Z,3.65
2023-03-08T02:09:52.008Z,4.38
2023-03-08T02:10:50.534Z,3.75
2023-03-08T02:11:48.538Z,3.92
2023-03-08T02:12:45.974Z,3.90
2023-03-08T02:13:43.505Z,3.97
2023-03-08T02:14:43.697Z,4.43
2023-03-08T02:15:40.336Z,3.97
2023-03-08T02:16:37.886Z,3.70
2023-03-08T02:17:37.788Z,4.70
2023-03-08T02:18:34.532Z,3.78
2023-03-08T02:19:36.849Z,3.70
2023-03-08T02:20:38.916Z,4.18
2023-03-08T02:21:35.486Z,3.92
2023-03-08T02:22:32.246Z,3.85
2023-03-08T02:23:28.929Z,4.28
2023-03-08T02:24:26.704Z,4.10
2023-03-08T02:25:26.128Z,4.53
2023-03-08T02:26:23.502Z,3.90
2023-03-08T02:27:23.999Z,4.65
2023-03-08T02:28:23.205Z,4.28
2023-03-08T02:29:19.840Z,4.40
2023-03-08T02:30:25.231Z,4.50
2023-03-08T02:31:21.818Z,3.97
2023-03-08T02:32:18.498Z,4.30
2023-03-08T02:33:15.309Z,4.22
2023-03-08T02:34:30.784Z,4.85
2023-03-08T02:35:27.697Z,4.00
2023-03-08T02:37:56.376Z,3.78
2023-03-08T02:39:11.591Z,3.83
2023-03-08T02:40:26.763Z,4.05
2023-03-08T02:41:42.016Z,4.15
2023-03-08T02:42:38.862Z,3.70
2023-03-08T02:43:35.604Z,4.15
2023-03-08T02:45:46.733Z,4.32
2023-03-08T02:47:02.188Z,4.50
2023-03-08T02:47:58.797Z,4.65
2023-03-08T02:48:55.420Z,3.97
2023-03-08T02:49:52.023Z,5.20
2023-03-08T02:50:48.587Z,4.45
2023-03-08T02:51:45.173Z,4.22
2023-03-08T02:53:00.518Z,4.32
2023-03-08T02:53:57.143Z,3.75
2023-03-08T02:55:12.535Z,4.50
2023-03-08T02:56:46.625Z,4.15
2023-03-08T02:57:43.204Z,4.22
2023-03-08T02:58:39.860Z,3.85
2023-03-08T02:59:36.678Z,3.78
2023-03-08T03:00:33.730Z,4.15
2023-03-08T03:01:30.317Z,3.97
2023-03-08T03:02:27.205Z,4.05
2023-03-08T03:03:23.862Z,3.78
2023-03-08T03:04:20.518Z,4.45
2023-03-08T03:05:17.232Z,3.97
2023-03-08T03:06:19.411Z,4.20
2023-03-08T03:07:16.138Z,4.32
2023-03-08T03:08:12.892Z,4.35
2023-03-08T03:09:10.459Z,4.20
2023-03-08T03:10:09.347Z,3.83
2023-03-08T03:11:20.643Z,3.75
2023-03-08T03:12:17.324Z,4.00
2023-03-08T03:13:15.500Z,4.22
2023-03-08T03:14:12.169Z,3.75
2023-03-08T03:15:10.229Z,4.20
2023-03-08T03:16:27.143Z,4.88
2023-03-08T03:17:23.855Z,3.78
2023-03-08T03:20:50.111Z,4.53
2023-03-08T03:22:06.258Z,4.55
2023-03-08T03:23:03.200Z,4.38
2023-03-08T03:25:36.398Z,4.30
2023-03-08T03:28:37.336Z,4.30
2023-03-08T03:29:34.014Z,3.78
2023-03-08T03:30:30.606Z,4.10
2023-03-08T03:31:27.887Z,4.50
2023-03-08T03:32:24.642Z,4.22
2023-03-08T03:33:21.332Z,3.72
2023-03-08T03:34:17.969Z,4.57
2023-03-08T03:35:14.622Z,4.60
2023-03-08T03:36:13.738Z,4.00
2023-03-08T03:37:10.317Z,4.28
2023-03-08T03:38:06.943Z,3.72
2023-03-08T03:39:03.634Z,4.22
2023-03-08T03:40:00.256Z,4.15
2023-03-08T03:41:08.825Z,4.10
2023-03-08T03:42:06.986Z,4.15
2023-03-08T03:43:03.919Z,5.22
2023-03-08T03:44:00.600Z,4.15
2023-03-08T03:44:57.207Z,4.50
2023-03-08T03:46:01.661Z,4.10
2023-03-08T03:46:58.450Z,4.18
2023-03-08T03:47:55.040Z,3.80
2023-03-08T03:48:51.764Z,4.68
2023-03-08T03:49:48.347Z,3.92
2023-03-08T03:50:44.959Z,4.07
2023-03-08T03:51:41.536Z,4.03
2023-03-08T03:52:38.120Z,5.38
2023-03-08T03:53:35.859Z,3.88
2023-03-08T03:54:32.674Z,4.80
2023-03-08T03:55:29.304Z,3.95
2023-03-08T03:56:27.800Z,4.00
2023-03-08T03:57:24.450Z,4.55
2023-03-08T03:58:21.677Z,4.90
2023-03-08T03:59:18.355Z,5.43
2023-03-08T04:00:15.570Z,4.50
2023-03-08T04:01:15.833Z,3.45
2023-03-08T04:02:12.478Z,4.70
2023-03-08T04:03:09.179Z,4.07
2023-03-08T04:04:06.159Z,4.10
2023-03-08T04:05:02.999Z,4.10
2023-03-08T04:06:10.486Z,3.50
2023-03-08T04:07:07.075Z,4.40
2023-03-08T04:08:03.993Z,4.25
2023-03-08T04:09:03.867Z,3.97
2023-03-08T04:10:00.419Z,3.83
2023-03-08T04:11:00.451Z,4.13
2023-03-08T04:12:02.460Z,4.18
2023-03-08T04:12:59.126Z,4.35
2023-03-08T04:13:56.126Z,3.70
2023-03-08T04:14:54.163Z,4.03
2023-03-08T04:15:50.779Z,4.00
2023-03-08T04:16:47.445Z,4.50
2023-03-08T04:17:44.361Z,4.20
2023-03-08T04:18:41.570Z,3.45
2023-03-08T04:19:38.185Z,4.10
2023-03-08T04:20:34.843Z,4.18
2023-03-08T04:21:32.127Z,4.22
2023-03-08T04:22:28.756Z,4.30
2023-03-08T04:23:25.431Z,4.72
2023-03-08T04:24:25.237Z,3.85
2023-03-08T04:25:21.822Z,3.92
2023-03-08T04:26:19.187Z,4.32
2023-03-08T04:27:15.832Z,4.30
2023-03-08T04:28:12.410Z,3.75
2023-03-08T04:29:09.090Z,4.00
2023-03-08T04:30:06.481Z,4.40
2023-03-08T04:31:17.915Z,4.28
2023-03-08T04:32:14.718Z,4.05
2023-03-08T04:33:11.422Z,4.43
2023-03-08T04:34:08.126Z,3.72
2023-03-08T04:35:05.584Z,4.18
2023-03-08T04:36:02.184Z,3.63
2023-03-08T04:36:58.874Z,4.43
2023-03-08T04:37:55.600Z,4.18
2023-03-08T04:38:52.383Z,4.47
2023-03-08T04:39:49.064Z,5.00
2023-03-08T04:41:12.211Z,4.38
2023-03-08T04:42:08.990Z,4.07
2023-03-08T04:43:05.587Z,4.00
2023-03-08T04:44:02.236Z,3.95
2023-03-08T04:44:58.773Z,3.55
2023-03-08T04:45:55.317Z,4.18
2023-03-08T04:46:53.125Z,4.18
2023-03-08T04:47:49.772Z,4.85
2023-03-08T04:48:47.287Z,4.72
2023-03-08T04:49:43.952Z,4.32
2023-03-08T04:50:40.818Z,4.63
2023-03-08T04:51:37.830Z,4.43
2023-03-08T04:52:34.449Z,4.75
2023-03-08T04:53:32.108Z,4.10
2023-03-08T04:54:28.697Z,4.35
2023-03-08T04:55:25.319Z,3.95
2023-03-08T04:56:22.065Z,4.47
2023-03-08T04:57:20.807Z,4.22
2023-03-08T04:58:18.139Z,4.50
2023-03-08T04:59:14.899Z,4.28
2023-03-08T05:00:12.610Z,5.65
2023-03-08T05:01:17.818Z,4.88
2023-03-08T05:02:14.446Z,4.35
2023-03-08T05:03:11.218Z,4.15
2023-03-08T05:04:10.853Z,3.95
2023-03-08T05:05:07.722Z,4.25
2023-03-08T05:06:05.236Z,5.20
2023-03-08T05:07:01.893Z,4.70
2023-03-08T05:08:05.495Z,4.25
2023-03-08T05:09:02.192Z,4.13
2023-03-08T05:09:58.801Z,4.38
2023-03-08T05:11:00.802Z,4.53
2023-03-08T05:11:59.438Z,4.40
2023-03-08T05:12:56.225Z,4.85
2023-03-08T05:13:58.204Z,4.70
2023-03-08T05:14:54.871Z,5.38
2023-03-08T05:15:51.730Z,4.60
2023-03-08T05:16:48.344Z,4.43
2023-03-08T05:17:44.938Z,6.63
2023-03-08T05:18:42.152Z,8.20
2023-03-08T05:19:38.768Z,5.95
2023-03-08T05:20:35.497Z,8.10
2023-03-08T05:21:32.027Z,5.93
2023-03-08T05:22:28.679Z,6.53
2023-03-08T05:23:28.502Z,5.93
2023-03-08T05:24:25.421Z,4.80
2023-03-08T05:25:22.010Z,5.10
2023-03-08T05:26:19.000Z,5.45
2023-03-08T05:27:15.571Z,5.20
2023-03-08T05:28:15.949Z,4.25
2023-03-08T05:29:13.084Z,4.35
2023-03-08T05:30:10.179Z,4.07
2023-03-08T05:31:15.709Z,4.43
2023-03-08T05:32:13.182Z,4.55
2023-03-08T05:33:09.919Z,4.07
2023-03-08T05:34:06.474Z,4.55
2023-03-08T05:35:03.555Z,5.00
2023-03-08T05:36:00.313Z,3.83
2023-03-08T05:36:56.992Z,3.72
2023-03-08T05:37:53.636Z,4.00
2023-03-08T05:38:54.807Z,4.80
2023-03-08T05:39:52.231Z,4.90
2023-03-08T05:40:49.990Z,4.40
2023-03-08T05:41:47.021Z,5.20
2023-03-08T05:42:43.683Z,4.25
2023-03-08T05:43:40.518Z,4.60
2023-03-08T05:44:37.737Z,4.05
2023-03-08T05:45:34.363Z,4.85
2023-03-08T05:46:31.891Z,4.32
2023-03-08T05:47:30.348Z,4.90
2023-03-08T05:48:27.024Z,4.32
2023-03-08T05:49:24.007Z,4.22
2023-03-08T05:50:20.602Z,4.15
2023-03-08T05:51:18.444Z,4.68
2023-03-08T05:52:15.017Z,3.85
2023-03-08T05:53:11.666Z,4.43
2023-03-08T05:54:08.583Z,4.03
2023-03-08T05:55:05.926Z,3.75
2023-03-08T05:56:14.700Z,4.30
2023-03-08T05:57:11.326Z,4.40
2023-03-08T05:58:07.888Z,4.00
2023-03-08T05:59:04.491Z,4.15
2023-03-08T06:00:01.085Z,4.30
2023-03-08T06:00:57.641Z,4.28
2023-03-08T06:01:54.247Z,4.22
2023-03-08T06:02:50.910Z,4.85
2023-03-08T06:03:49.908Z,3.97
2023-03-08T06:04:46.610Z,3.65
2023-03-08T06:05:43.192Z,4.18
2023-03-08T06:06:39.864Z,4.32
2023-03-08T06:07:36.557Z,3.83
2023-03-08T06:08:33.167Z,4.50
2023-03-08T06:09:29.763Z,3.83
2023-03-08T06:10:26.769Z,3.63
2023-03-08T06:11:23.472Z,3.90
2023-03-08T06:12:20.205Z,3.80
2023-03-08T06:13:16.770Z,3.47
2023-03-08T06:14:13.478Z,3.58
2023-03-08T06:15:10.753Z,3.92
2023-03-08T06:16:08.153Z,3.67
2023-03-08T06:17:04.890Z,3.65
2023-03-08T06:18:01.531Z,3.53
2023-03-08T06:18:58.169Z,3.83
2023-03-08T06:19:54.744Z,4.13
2023-03-08T06:21:02.768Z,3.97
2023-03-08T06:21:59.351Z,3.60
2023-03-08T06:22:56.019Z,4.28
2023-03-08T06:23:53.217Z,3.60
2023-03-08T06:24:50.170Z,3.58
2023-03-08T06:25:46.830Z,3.60
2023-03-08T06:26:43.457Z,3.92
2023-03-08T06:27:40.075Z,3.53
2023-03-08T06:28:37.355Z,3.55
2023-03-08T06:29:33.937Z,3.45
2023-03-08T06:30:30.532Z,3.20
2023-03-08T06:31:27.307Z,3.95
2023-03-08T06:32:24.042Z,3.42
2023-03-08T06:33:24.381Z,4.40
2023-03-08T06:34:21.760Z,4.00
2023-03-08T06:35:18.371Z,4.53
2023-03-08T06:36:17.526Z,4.60
2023-03-08T06:37:15.073Z,4.10
2023-03-08T06:38:11.704Z,4.18
2023-03-08T06:39:09.110Z,3.08
2023-03-08T06:40:09.181Z,4.13
2023-03-08T06:41:07.139Z,3.45
2023-03-08T06:42:03.950Z,3.70
2023-03-08T06:43:01.648Z,4.75
2023-03-08T06:43:58.447Z,3.97
2023-03-08T06:44:55.271Z,3.55
2023-03-08T06:45:52.603Z,3.45
2023-03-08T06:46:49.259Z,4.10
2023-03-08T06:47:45.881Z,3.85
2023-03-08T06:48:42.832Z,3.47
2023-03-08T06:49:39.472Z,4.50
2023-03-08T06:50:36.111Z,4.95
2023-03-08T06:51:32.668Z,4.97
2023-03-08T06:52:34.964Z,4.88
2023-03-08T06:53:32.146Z,4.97
2023-03-08T06:54:28.866Z,4.95
2023-03-08T06:55:25.687Z,5.25
2023-03-08T06:56:22.316Z,5.55
2023-03-08T06:57:18.936Z,5.18
2023-03-08T06:58:15.483Z,4.65
2023-03-08T06:59:13.704Z,5.13
2023-03-08T07:00:12.391Z,5.40
2023-03-08T07:01:09.892Z,5.88
2023-03-08T07:02:06.995Z,7.15
2023-03-08T07:03:03.706Z,6.72
2023-03-08T07:04:00.317Z,7.68
2023-03-08T07:04:57.007Z,7.05
2023-03-08T07:05:53.674Z,8.57
2023-03-08T07:06:50.338Z,8.73
2023-03-08T07:07:46.880Z,8.48
2023-03-08T07:08:43.538Z,8.85
2023-03-08T07:09:40.453Z,9.40
2023-03-08T07:10:37.225Z,9.75
2023-03-08T07:11:34.369Z,10.50
2023-03-08T07:12:36.665Z,9.27
2023-03-08T07:13:33.468Z,10.30
2023-03-08T07:14:30.150Z,10.88
2023-03-08T07:15:27.313Z,12.95
2023-03-08T07:16:23.937Z,11.38
2023-03-08T07:17:20.622Z,11.18
2023-03-08T07:18:17.367Z,11.38
2023-03-08T07:19:14.089Z,11.57
2023-03-08T07:20:13.143Z,11.95
2023-03-08T07:21:10.432Z,13.20
2023-03-08T07:22:07.003Z,12.82
2023-03-08T07:23:03.738Z,12.07
2023-03-08T07:24:01.267Z,11.90
2023-03-08T07:24:57.969Z,12.10
2023-03-08T07:25:54.549Z,12.95
2023-03-08T07:26:51.083Z,12.93
2023-03-08T07:27:47.774Z,11.45
2023-03-08T07:28:44.412Z,13.25
2023-03-08T07:29:41.127Z,11.40
2023-03-08T07:30:37.717Z,12.80
2023-03-08T07:31:36.354Z,11.88
2023-03-08T07:32:33.061Z,13.10
2023-03-08T07:33:29.696Z,14.27
2023-03-08T07:34:26.337Z,14.70
2023-03-08T07:35:23.167Z,12.95
2023-03-08T07:36:19.782Z,13.30
2023-03-08T07:37:16.455Z,12.90
2023-03-08T07:38:13.430Z,12.80
2023-03-08T07:39:10.150Z,12.70
2023-03-08T07:40:08.998Z,12.55
2023-03-08T07:41:06.100Z,11.40
2023-03-08T07:42:02.800Z,11.38
2023-03-08T07:43:00.749Z,11.25
2023-03-08T07:43:57.485Z,11.70
2023-03-08T07:44:54.308Z,11.95
2023-03-08T07:45:50.998Z,12.07
2023-03-08T07:46:47.905Z,12.20
2023-03-08T07:47:44.555Z,12.30
2023-03-08T07:48:41.221Z,12.05
2023-03-08T07:49:37.924Z,13.10
2023-03-08T07:50:34.792Z,11.38
2023-03-08T07:51:31.408Z,11.13
2023-03-08T07:52:31.489Z,11.68
2023-03-08T07:53:28.105Z,10.27
2023-03-08T07:54:24.879Z,10.25
2023-03-08T07:55:22.145Z,10.32
2023-03-08T07:56:19.045Z,12.20
2023-03-08T07:57:15.982Z,10.55
2023-03-08T07:58:12.716Z,9.55
2023-03-08T07:59:09.372Z,9.82
2023-03-08T08:00:07.727Z,10.13
2023-03-08T08:01:12.006Z,10.10
2023-03-08T08:02:12.450Z,10.35
2023-03-08T08:03:09.190Z,10.32
2023-03-08T08:04:08.037Z,9.70
2023-03-08T08:05:05.824Z,9.98
2023-03-08T08:06:04.244Z,10.43
2023-03-08T08:07:03.583Z,9.80
2023-03-08T08:08:01.527Z,9.70
2023-03-08T08:08:58.166Z,10.50
2023-03-08T08:09:54.925Z,9.93
2023-03-08T08:10:51.556Z,10.55
2023-03-08T08:11:48.226Z,9.20
2023-03-08T08:12:45.008Z,9.80
2023-03-08T08:13:41.775Z,9.38
2023-03-08T08:14:38.481Z,9.45
2023-03-08T08:15:35.505Z,10.48
2023-03-08T08:16:32.712Z,9.43
2023-03-08T08:17:29.609Z,9.82
2023-03-08T08:18:26.247Z,9.90
2023-03-08T08:19:23.251Z,9.00
2023-03-08T08:20:19.977Z,9.52
2023-03-08T08:21:16.849Z,9.02
2023-03-08T08:22:13.613Z,9.25
2023-03-08T08:23:10.180Z,9.65
2023-03-08T08:24:07.627Z,9.48
2023-03-08T08:25:08.242Z,8.15
2023-03-08T08:26:07.004Z,8.68
2023-03-08T08:27:03.855Z,8.18
2023-03-08T08:28:01.962Z,9.50
2023-03-08T08:28:58.858Z,9.68
2023-03-08T08:29:56.267Z,9.15
2023-03-08T08:31:05.160Z,10.38
2023-03-08T08:32:04.172Z,10.55
2023-03-08T08:33:03.353Z,10.85
2023-03-08T08:34:00.814Z,10.63
2023-03-08T08:34:59.318Z,10.63
2023-03-08T08:35:57.680Z,10.50
2023-03-08T08:36:54.309Z,9.80
2023-03-08T08:37:50.917Z,9.82
2023-03-08T08:38:48.098Z,10.45
2023-03-08T08:39:44.925Z,9.88
2023-03-08T08:40:42.038Z,10.23
2023-03-08T08:41:38.649Z,9.82
2023-03-08T08:42:35.229Z,9.68
2023-03-08T08:43:34.023Z,9.63
2023-03-08T08:44:30.678Z,9.40
2023-03-08T08:45:27.246Z,9.38
2023-03-08T08:46:23.973Z,9.25
2023-03-08T08:47:20.667Z,9.23
2023-03-08T08:48:17.301Z,9.23
2023-03-08T08:49:13.921Z,8.82
2023-03-08T08:50:13.656Z,8.65
2023-03-08T08:51:13.324Z,7.82
2023-03-08T08:52:10.031Z,8.90
2023-03-08T08:53:07.299Z,9.20
2023-03-08T08:54:04.039Z,8.98
2023-03-08T08:55:01.776Z,8.57
2023-03-08T08:55:58.556Z,9.07
2023-03-08T08:56:55.131Z,8.95
2023-03-08T08:57:51.751Z,8.98
2023-03-08T08:58:48.686Z,8.57
2023-03-08T08:59:46.355Z,8.80
2023-03-08T09:00:43.287Z,8.73
2023-03-08T09:01:43.867Z,8.95
2023-03-08T09:02:40.551Z,8.68
2023-03-08T09:03:37.269Z,8.32
2023-03-08T09:04:33.977Z,8.68
2023-03-08T09:05:32.097Z,8.70
2023-03-08T09:06:29.606Z,8.63
2023-03-08T09:07:26.341Z,8.65
2023-03-08T09:08:22.926Z,7.95
2023-03-08T09:09:19.622Z,7.55
2023-03-08T09:10:16.622Z,8.07
2023-03-08T09:11:13.280Z,7.85
2023-03-08T09:12:09.984Z,7.53
2023-03-08T09:13:07.093Z,7.07
2023-03-08T09:14:03.879Z,7.50
2023-03-08T09:15:00.593Z,7.30
2023-03-08T09:15:57.260Z,8.05
2023-03-08T09:16:54.015Z,7.68
2023-03-08T09:17:50.947Z,7.85
2023-03-08T09:18:48.326Z,7.38
2023-03-08T09:19:44.917Z,7.82
2023-03-08T09:20:41.640Z,7.50
2023-03-08T09:21:38.326Z,7.20
2023-03-08T09:22:38.299Z,6.20
2023-03-08T09:23:34.948Z,6.50
2023-03-08T09:24:31.560Z,7.10
2023-03-08T09:25:28.162Z,7.25
2023-03-08T09:26:24.747Z,7.50
2023-03-08T09:27:21.549Z,7.55
2023-03-08T09:28:18.547Z,7.68
2023-03-08T09:29:15.280Z,7.22
2023-03-08T09:30:14.113Z,7.22
2023-03-08T09:31:16.890Z,7.47
2023-03-08T09:32:13.869Z,7.43
2023-03-08T09:33:10.652Z,7.20
2023-03-08T09:34:11.069Z,7.82
2023-03-08T09:35:07.836Z,7.53
2023-03-08T09:36:04.694Z,6.65
2023-03-08T09:37:01.398Z,7.25
2023-03-08T09:38:01.103Z,7.13
2023-03-08T09:38:58.141Z,7.30
2023-03-08T09:39:54.702Z,7.35
2023-03-08T09:41:25.868Z,7.45
2023-03-08T09:42:33.521Z,7.15
2023-03-08T09:43:56.380Z,7.53
2023-03-08T09:45:14.261Z,7.10
2023-03-08T09:46:23.659Z,6.97
2023-03-08T09:47:52.235Z,6.75
2023-03-08T09:48:50.977Z,7.00
2023-03-08T09:49:52.624Z,7.25
2023-03-08T09:50:55.158Z,6.53
2023-03-08T09:53:24.394Z,5.85
2023-03-08T09:54:24.728Z,5.13
2023-03-08T09:55:30.370Z,5.43
2023-03-08T09:56:37.144Z,6.57
2023-03-08T09:57:38.442Z,6.05
2023-03-08T10:00:00.184Z,5.40
2023-03-08T10:01:04.132Z,5.15
2023-03-08T10:02:38.257Z,5.22
2023-03-08T10:04:10.517Z,5.40
2023-03-08T10:05:29.463Z,4.93
2023-03-08T10:06:31.845Z,4.53
2023-03-08T10:09:02.110Z,3.97
2023-03-08T10:10:13.076Z,4.30
2023-03-08T10:11:37.468Z,4.45
2023-03-08T10:12:44.572Z,4.20
2023-03-08T10:13:49.535Z,3.80
2023-03-08T10:14:57.891Z,3.80
2023-03-08T10:16:28.285Z,4.65
2023-03-08T10:17:34.207Z,4.28
2023-03-08T10:18:56.651Z,4.47
2023-03-08T10:19:58.924Z,4.00
2023-03-08T10:20:58.028Z,4.38
2023-03-08T10:21:57.685Z,5.50
2023-03-08T10:23:00.459Z,5.28
2023-03-08T10:24:26.835Z,4.88
2023-03-08T10:25:33.993Z,5.18
2023-03-08T10:26:31.555Z,3.80
2023-03-08T10:27:32.756Z,4.43
2023-03-08T10:28:29.445Z,4.13
2023-03-08T10:29:26.033Z,4.35
2023-03-08T10:30:26.757Z,4.00
2023-03-08T10:31:29.009Z,3.78
2023-03-08T10:32:26.801Z,3.58
2023-03-08T10:33:24.647Z,3.45
2023-03-08T10:34:25.659Z,3.80
2023-03-08T10:35:34.811Z,3.10
2023-03-08T10:36:31.886Z,3.67
2023-03-08T10:37:33.517Z,3.63
2023-03-08T10:38:35.433Z,3.07
2023-03-08T10:39:32.413Z,2.72
2023-03-08T10:40:29.036Z,3.10
2023-03-08T10:41:26.070Z,2.95
2023-03-08T10:42:25.901Z,2.85
2023-03-08T10:43:38.995Z,3.15
2023-03-08T10:45:39.208Z,2.97
2023-03-08T10:46:47.187Z,2.78
2023-03-08T10:47:57.579Z,2.80
2023-03-08T10:48:54.592Z,2.83
2023-03-08T10:50:18.228Z,2.95
2023-03-08T10:51:20.892Z,3.08
2023-03-08T10:53:20.203Z,2.60
2023-03-08T10:54:16.829Z,2.83
2023-03-08T10:55:20.068Z,2.80
2023-03-08T10:56:24.858Z,3.08
2023-03-08T10:57:23.326Z,3.10
2023-03-08T10:58:34.861Z,3.63
2023-03-08T10:59:34.968Z,3.20
2023-03-08T11:00:35.537Z,3.63
2023-03-08T11:01:47.546Z,3.70
2023-03-08T11:02:44.142Z,3.65
2023-03-08T11:03:40.721Z,4.35
2023-03-08T11:04:37.379Z,4.25
2023-03-08T11:05:33.962Z,3.85
2023-03-08T11:06:31.711Z,3.85
2023-03-08T11:07:33.419Z,3.88
2023-03-08T11:08:54.778Z,3.50
2023-03-08T11:09:52.127Z,3.88
2023-03-08T11:10:59.308Z,3.25
2023-03-08T11:12:00.362Z,3.15
2023-03-08T11:13:02.954Z,3.20
2023-03-08T11:13:59.629Z,2.83
2023-03-08T11:14:56.357Z,3.10
2023-03-08T11:16:05.951Z,2.30
2023-03-08T11:17:16.059Z,2.42
2023-03-08T11:18:15.487Z,2.58
2023-03-08T11:19:14.963Z,2.58
2023-03-08T11:20:24.866Z,2.75
2023-03-08T11:21:30.795Z,2.65
2023-03-08T11:22:51.635Z,2.47
2023-03-08T11:24:03.870Z,2.17
2023-03-08T11:25:13.980Z,2.60
2023-03-08T11:26:28.018Z,1.95
2023-03-08T11:27:39.443Z,2.55
2023-03-08T11:29:04.737Z,2.35
2023-03-08T11:30:16.370Z,2.58
2023-03-08T11:31:19.177Z,2.40
2023-03-08T11:32:46.830Z,1.70
2023-03-08T11:33:55.661Z,2.30
2023-03-08T11:35:11.115Z,2.00
2023-03-08T11:36:33.232Z,1.83
2023-03-08T11:37:44.175Z,2.10
2023-03-08T11:38:42.091Z,1.95
2023-03-08T11:39:42.300Z,2.10
2023-03-08T11:41:15.313Z,2.35
2023-03-08T11:42:41.429Z,2.10
2023-03-08T11:44:04.221Z,2.45
2023-03-08T11:45:17.167Z,2.10
2023-03-08T11:46:47.613Z,2.40
2023-03-08T11:48:20.929Z,2.20
2023-03-08T11:49:26.404Z,2.10
2023-03-08T11:50:24.818Z,2.40
2023-03-08T11:51:36.352Z,2.00
2023-03-08T11:52:57.840Z,2.10
2023-03-08T11:54:19.084Z,2.05
2023-03-08T11:55:35.909Z,2.42
2023-03-08T11:56:42.692Z,2.50
2023-03-08T11:57:47.697Z,2.03
2023-03-08T11:58:53.401Z,2.33
2023-03-08T12:00:01.070Z,2.53
2023-03-08T12:01:06.574Z,1.95
2023-03-08T12:02:12.258Z,2.05
2023-03-08T12:03:21.879Z,2.00
2023-03-08T12:04:41.141Z,1.95
2023-03-08T12:05:43.567Z,2.10
2023-03-08T12:07:45.159Z,2.25
2023-03-08T12:08:47.992Z,2.22
2023-03-08T12:10:24.057Z,2.00
2023-03-08T12:11:33.473Z,1.85
2023-03-08T12:12:59.041Z,2.08
2023-03-08T12:14:03.986Z,1.88
2023-03-08T12:15:23.543Z,1.77
2023-03-08T12:16:34.170Z,1.50
2023-03-08T12:17:40.665Z,1.95
2023-03-08T12:19:22.018Z,1.90
2023-03-08T12:20:20.269Z,1.80
2023-03-08T12:21:22.527Z,1.88
2023-03-08T12:22:39.295Z,2.38
2023-03-08T12:24:03.897Z,2.35
2023-03-08T12:25:15.743Z,1.85
2023-03-08T12:26:25.151Z,2.25
2023-03-08T12:27:49.325Z,2.20
2023-03-08T12:28:54.518Z,2.05
2023-03-08T12:30:28.028Z,1.73
2023-03-08T12:31:29.862Z,2.08
2023-03-08T12:32:27.891Z,2.15
2023-03-08T12:33:26.746Z,2.00
2023-03-08T12:34:36.354Z,1.90
2023-03-08T12:35:35.595Z,1.70
2023-03-08T12:36:43.966Z,1.77
2023-03-08T12:37:40.687Z,1.80
2023-03-08T12:38:42.449Z,2.05
2023-03-08T12:39:40.611Z,2.22
2023-03-08T12:40:52.066Z,1.70
2023-03-08T12:42:01.729Z,1.70
2023-03-08T12:43:14.960Z,1.95
2023-03-08T12:44:26.766Z,1.80
2023-03-08T12:45:23.366Z,1.80
2023-03-08T12:46:20.072Z,1.40
2023-03-08T12:47:22.844Z,1.95
2023-03-08T12:48:30.662Z,1.60
2023-03-08T12:49:29.455Z,1.73
2023-03-08T12:50:26.484Z,1.70
2023-03-08T12:51:32.143Z,1.70
2023-03-08T12:52:35.314Z,1.95
2023-03-08T12:53:43.245Z,1.40
2023-03-08T12:54:39.970Z,1.90
2023-03-08T12:55:36.558Z,1.70
2023-03-08T12:56:51.168Z,1.90
2023-03-08T12:57:54.340Z,1.90
2023-03-08T12:58:57.565Z,1.83
2023-03-08T13:00:00.645Z,1.83
2023-03-08T13:01:03.056Z,1.60
2023-03-08T13:02:01.323Z,1.65
2023-03-08T13:03:28.127Z,1.60
2023-03-08T13:04:42.072Z,2.33
2023-03-08T13:05:47.281Z,1.63
2023-03-08T13:06:53.630Z,2.03
2023-03-08T13:07:55.508Z,1.73
2023-03-08T13:09:04.499Z,1.80
2023-03-08T13:10:08.467Z,1.80
2023-03-08T13:11:11.877Z,1.55
2023-03-08T13:12:08.410Z,1.98
2023-03-08T13:13:17.985Z,1.73
2023-03-08T13:14:41.064Z,1.67
2023-03-08T13:15:39.189Z,1.75
2023-03-08T13:16:39.666Z,1.73
2023-03-08T13:17:36.413Z,1.90
2023-03-08T13:18:33.092Z,1.70
2023-03-08T13:19:31.639Z,1.60
2023-03-08T13:20:31.145Z,1.75
2023-03-08T13:21:41.684Z,1.77
2023-03-08T13:22:50.243Z,1.65
2023-03-08T13:23:55.892Z,1.73
2023-03-08T13:25:06.900Z,1.52
2023-03-08T13:26:09.397Z,1.75
2023-03-08T13:28:24.028Z,1.90
2023-03-08T13:29:21.524Z,1.98
2023-03-08T13:30:28.899Z,1.83
2023-03-08T13:31:30.715Z,2.05
2023-03-08T13:32:27.789Z,1.63
2023-03-08T13:33:51.887Z,2.05
2023-03-08T13:35:13.901Z,1.95
2023-03-08T13:36:25.200Z,1.85
2023-03-08T13:37:24.018Z,1.40
2023-03-08T13:38:23.433Z,2.25
2023-03-08T13:39:30.108Z,1.75
2023-03-08T13:40:28.873Z,1.80
2023-03-08T13:41:37.582Z,1.63
2023-03-08T13:42:34.218Z,1.80
2023-03-08T13:43:32.812Z,1.85
2023-03-08T13:44:29.394Z,2.05
2023-03-08T13:45:26.984Z,1.63
2023-03-08T13:46:23.842Z,1.77
2023-03-08T13:47:25.306Z,1.92
2023-03-08T13:48:24.335Z,1.77